createdAt,value
2022-09-06T00:03:24.374Z,12.4
2022-09-06T00:08:24.213Z,14.7
2022-09-06T00:13:23.920Z,13.3
2022-09-06T00:18:23.776Z,14.1
2022-09-06T00:23:23.432Z,15.1
2022-09-06T00:28:23.237Z,16
2022-09-06T00:33:22.957Z,15.1
2022-09-06T00:38:22.766Z,18.2
2022-09-06T00:43:22.520Z,18.4
2022-09-06T00:48:22.238Z,16.9
2022-09-06T00:53:22.081Z,14
2022-09-06T00:58:21.752Z,14.6
2022-09-06T01:03:21.488Z,18.4
2022-09-06T01:08:21.350Z,17.3
2022-09-06T01:13:20.981Z,17
2022-09-06T01:18:20.811Z,17.6
2022-09-06T01:23:20.479Z,16.7
2022-09-06T01:28:20.231Z,19.3
2022-09-06T01:33:19.973Z,20.2
2022-09-06T01:38:19.713Z,16.6
2022-09-06T01:43:19.438Z,19.7
2022-09-06T01:48:19.222Z,18.2
2022-09-06T01:53:18.933Z,16.1
2022-09-06T01:58:18.750Z,13.6
2022-09-06T02:03:18.468Z,13.9
2022-09-06T02:08:18.177Z,13.4
2022-09-06T02:13:17.850Z,13.6
2022-09-06T02:18:17.621Z,11
2022-09-06T02:23:17.322Z,11.1
2022-09-06T02:28:17.076Z,11.5
2022-09-06T02:33:16.828Z,11.2
2022-09-06T02:38:16.574Z,12.8
2022-09-06T02:43:16.283Z,12.5
2022-09-06T02:48:16.001Z,12.1
2022-09-06T02:53:15.648Z,12.2
2022-09-06T02:58:15.363Z,11.9
2022-09-06T03:03:15.052Z,10.4
2022-09-06T03:08:14.754Z,10.9
2022-09-06T03:13:14.483Z,10.3
2022-09-06T03:18:14.222Z,11.7
2022-09-06T03:23:13.920Z,9.9
2022-09-06T03:28:13.568Z,10.3
2022-09-06T03:33:13.330Z,14.3
2022-09-06T03:38:12.986Z,12.6
2022-09-06T03:43:12.705Z,12.1
2022-09-06T03:48:12.414Z,11.3
2022-09-06T03:53:12.056Z,12.9
2022-09-06T03:58:11.802Z,10.2
2022-09-06T04:03:11.469Z,13.4
2022-09-06T04:08:11.201Z,13
2022-09-06T04:13:10.839Z,10.1
2022-09-06T04:18:10.592Z,15.1
2022-09-06T04:23:10.243Z,10.1
2022-09-06T04:28:09.948Z,9.1
2022-09-06T04:33:09.622Z,11.8
2022-09-06T04:38:09.359Z,12.8
2022-09-06T04:43:09.096Z,9.7
2022-09-06T04:48:08.787Z,13.8
2022-09-06T04:53:08.518Z,13.7
2022-09-06T04:58:08.259Z,11.4
2022-09-06T05:03:07.926Z,11.8
2022-09-06T05:08:07.671Z,12.7
2022-09-06T05:13:07.345Z,12.8
2022-09-06T05:18:07.106Z,12.5
2022-09-06T05:23:06.724Z,14.9
2022-09-06T05:28:06.413Z,11.5
2022-09-06T05:33:06.071Z,11.6
2022-09-06T05:38:05.773Z,11.4
2022-09-06T05:43:05.414Z,9.6
2022-09-06T05:48:05.056Z,12.9
2022-09-06T05:53:04.712Z,11.5
2022-09-06T05:58:04.442Z,14.9
2022-09-06T06:03:04.081Z,11.8
2022-09-06T06:08:03.872Z,12.1
2022-09-06T06:13:03.521Z,10.9
2022-09-06T06:18:03.204Z,11.5
2022-09-06T06:23:02.847Z,13.5
2022-09-06T06:28:02.559Z,11.5
2022-09-06T06:33:02.257Z,11
2022-09-06T06:38:01.926Z,10.3
2022-09-06T06:43:01.694Z,12.1
2022-09-06T06:48:01.426Z,10.9
2022-09-06T06:53:03.451Z,9.2
2022-09-06T06:58:00.849Z,9.8
2022-09-06T07:03:01.988Z,10.6
2022-09-06T07:08:00.309Z,9.4
2022-09-06T07:13:00.048Z,9.1
2022-09-06T07:17:59.813Z,9.6
2022-09-06T07:28:01.607Z,10
2022-09-06T07:32:59.034Z,10.8
2022-09-06T07:37:58.847Z,9.7
2022-09-06T07:42:58.601Z,9.8
2022-09-06T07:47:58.695Z,9.2
2022-09-06T07:53:15.557Z,9.2
2022-09-06T07:57:57.911Z,11.2
2022-09-06T08:02:57.715Z,8.4
2022-09-06T08:12:57.266Z,8
2022-09-06T08:17:57.101Z,7.7
2022-09-06T08:22:56.856Z,11.3
2022-09-06T08:27:56.700Z,10.1
2022-09-06T08:32:56.498Z,9.5
2022-09-06T08:37:57.360Z,9.3
2022-09-06T08:42:56.122Z,8
2022-09-06T08:47:55.988Z,8
2022-09-06T08:53:16.101Z,6
2022-09-06T08:57:55.658Z,7.7
2022-09-06T09:02:55.486Z,7.2
2022-09-06T09:07:55.329Z,5.6
2022-09-06T09:12:55.148Z,6.2
2022-09-06T09:17:55.016Z,6.3
2022-09-06T09:22:54.804Z,4.6
2022-09-06T09:27:54.679Z,4.2
2022-09-06T09:32:54.494Z,4.4
2022-09-06T09:37:57.394Z,4.2
2022-09-06T09:42:54.181Z,4.5
2022-09-06T09:47:54.074Z,5
2022-09-06T09:52:53.939Z,7.5
2022-09-06T09:57:53.816Z,4.6
2022-09-06T10:02:53.632Z,4.7
2022-09-06T10:07:53.532Z,4.8
2022-09-06T10:12:53.432Z,4.9
2022-09-06T10:17:53.311Z,4.2
2022-09-06T10:22:53.148Z,5.6
2022-09-06T10:28:10.511Z,5.4
2022-09-06T10:32:52.903Z,3.7
2022-09-06T10:37:52.735Z,4.5
2022-09-06T10:42:52.652Z,5.7
2022-09-06T10:47:53.869Z,5.1
2022-09-06T10:52:52.432Z,6.1
2022-09-06T10:58:17.500Z,4.2
2022-09-06T11:12:52.095Z,4.8
2022-09-06T11:17:52.029Z,4.6
2022-09-06T11:22:51.956Z,5.1
2022-09-06T11:27:57.826Z,3.9
2022-09-06T11:32:51.831Z,4.7
2022-09-06T11:37:51.806Z,4.5
2022-09-06T11:42:51.726Z,3.7
2022-09-06T11:47:51.800Z,4.7
2022-09-06T11:52:51.584Z,4.3
2022-09-06T11:57:51.556Z,3.7
2022-09-06T12:02:51.821Z,6
2022-09-06T12:07:51.424Z,4.3
2022-09-06T12:12:51.359Z,4.1
2022-09-06T12:17:51.283Z,3.9
2022-09-06T12:22:51.221Z,4.9
2022-09-06T12:27:51.202Z,3.8
2022-09-06T12:32:51.186Z,5.3
2022-09-06T12:37:51.177Z,5
2022-09-06T12:42:51.150Z,3.4
2022-09-06T12:47:51.117Z,5.1
2022-09-06T12:52:51.063Z,3.9
2022-09-06T12:57:51.047Z,3.9
2022-09-06T13:02:51.099Z,6.7
2022-09-06T13:07:50.933Z,4.3
2022-09-06T13:12:50.885Z,6.5
2022-09-06T13:17:50.871Z,4.7
2022-09-06T13:22:50.800Z,5.4
2022-09-06T13:27:50.767Z,6.5
2022-09-06T13:32:50.717Z,5.8
2022-09-06T13:37:50.642Z,6.2
2022-09-06T13:42:50.593Z,4.7
2022-09-06T13:47:50.517Z,4.2
2022-09-06T13:52:50.454Z,5.9
2022-09-06T13:57:50.441Z,3.5
2022-09-06T14:02:50.480Z,7.6
2022-09-06T14:07:50.372Z,4.7
2022-09-06T14:12:50.304Z,4.9
2022-09-06T14:17:50.281Z,4.5
2022-09-06T14:22:51.553Z,4.5
2022-09-06T14:27:50.157Z,4.5
2022-09-06T14:32:50.106Z,3.7
2022-09-06T14:37:50.041Z,4.1
2022-09-06T14:42:50.759Z,5.7
2022-09-06T14:47:51.301Z,4.4
2022-09-06T14:52:49.910Z,5.6
2022-09-06T14:57:49.901Z,7.1
2022-09-06T15:02:49.855Z,4.6
2022-09-06T15:07:49.794Z,4.1
2022-09-06T15:12:49.730Z,6.6
2022-09-06T15:17:49.681Z,4.3
2022-09-06T15:22:56.352Z,3.7
2022-09-06T15:27:49.573Z,4.4
2022-09-06T15:32:49.469Z,4
2022-09-06T15:37:51.452Z,4.6
2022-09-06T15:42:49.392Z,3.2
2022-09-06T15:47:49.382Z,3.7
2022-09-06T15:52:49.341Z,4.1
2022-09-06T15:57:49.303Z,4.4
2022-09-06T16:02:49.323Z,4.5
2022-09-06T16:07:50.676Z,4.2
2022-09-06T16:12:50.711Z,3.6
2022-09-06T16:17:49.211Z,5.6
2022-09-06T16:22:49.212Z,5.3
2022-09-06T16:27:49.185Z,4.6
2022-09-06T16:32:49.101Z,8.3
2022-09-06T16:37:49.101Z,6.3
2022-09-06T16:42:49.017Z,5.9
2022-09-06T16:47:48.997Z,7.4
2022-09-06T16:52:48.975Z,6.2
2022-09-06T16:57:48.878Z,7.3
2022-09-06T17:02:48.895Z,13.7
2022-09-06T17:07:48.795Z,9.1
2022-09-06T17:12:48.706Z,7.6
2022-09-06T17:17:48.679Z,10.6
2022-09-06T17:22:48.594Z,7.2
2022-09-06T17:27:48.567Z,7.4
2022-09-06T17:32:48.483Z,7.7
2022-09-06T17:37:48.440Z,6.6
2022-09-06T17:42:48.335Z,5.3
2022-09-06T17:47:48.303Z,8.9
2022-09-06T17:52:48.238Z,8
2022-09-06T17:57:48.191Z,10.1
2022-09-06T18:02:49.129Z,6
2022-09-06T18:07:48.043Z,7.1
2022-09-06T18:12:47.972Z,7.3
2022-09-06T18:17:47.906Z,8.3
2022-09-06T18:22:47.791Z,8.2
2022-09-06T18:27:47.757Z,7.6
2022-09-06T18:32:47.599Z,5.8
2022-09-06T18:37:47.534Z,8.7
2022-09-06T18:42:47.429Z,7.7
2022-09-06T18:47:47.338Z,8.7
2022-09-06T18:52:47.276Z,7.9
2022-09-06T18:57:47.134Z,6.3
2022-09-06T19:02:47.009Z,7.1
2022-09-06T19:07:46.963Z,7.9
2022-09-06T19:12:49.215Z,8.5
2022-09-06T19:17:46.707Z,6.5
2022-09-06T19:22:46.615Z,7.3
2022-09-06T19:27:48.756Z,6.7
2022-09-06T19:32:46.386Z,9.2
2022-09-06T19:37:46.288Z,7.5
2022-09-06T19:42:46.170Z,5.9
2022-09-06T19:47:46.037Z,5.9
2022-09-06T19:52:45.897Z,6.8
2022-09-06T19:57:45.867Z,7.8
2022-09-06T20:02:45.595Z,7.3
2022-09-06T20:07:45.459Z,7.3
2022-09-06T20:12:45.365Z,7.9
2022-09-06T20:17:45.170Z,5.5
2022-09-06T20:22:45.083Z,9
2022-09-06T20:27:44.960Z,7.4
2022-09-06T20:32:44.806Z,7.7
2022-09-06T20:37:44.694Z,7.9
2022-09-06T20:42:44.536Z,7.2
2022-09-06T20:47:44.358Z,7.2
2022-09-06T20:52:44.276Z,8.4
2022-09-06T20:57:44.089Z,7.3
2022-09-06T21:02:43.959Z,6
2022-09-06T21:07:43.856Z,6.3
2022-09-06T21:12:43.685Z,6.2
2022-09-06T21:17:43.617Z,7
2022-09-06T21:22:43.429Z,6.6
2022-09-06T21:27:44.774Z,7.2
2022-09-06T21:32:43.165Z,8.5
2022-09-06T21:37:43.037Z,6.5
2022-09-06T21:42:42.892Z,6.8
2022-09-06T21:47:42.751Z,9.1
2022-09-06T21:52:42.538Z,8.3
2022-09-06T21:57:43.563Z,11.9
2022-09-06T22:02:42.195Z,7.8
2022-09-06T22:07:42.049Z,8.6
2022-09-06T22:12:41.876Z,5.9
2022-09-06T22:17:41.693Z,7.6
2022-09-06T22:22:41.460Z,8.1
2022-09-06T22:27:41.334Z,5.9
2022-09-06T22:32:41.167Z,6.4
2022-09-06T22:37:40.988Z,7.7
2022-09-06T22:42:40.721Z,5.8
2022-09-06T22:47:40.552Z,9.9
2022-09-06T22:52:40.302Z,6
2022-09-06T22:57:40.137Z,7.4
2022-09-06T23:02:39.909Z,7.6
2022-09-06T23:07:39.734Z,7.3
2022-09-06T23:12:39.464Z,6.4
2022-09-06T23:17:39.255Z,7.3
2022-09-06T23:22:40.452Z,8.4
2022-09-06T23:27:38.826Z,6.6
2022-09-06T23:32:38.554Z,7.8
2022-09-06T23:37:38.320Z,8.3
2022-09-06T23:42:38.113Z,8
2022-09-06T23:47:37.924Z,8.3
2022-09-06T23:52:37.617Z,8.2
2022-09-06T23:57:11.117Z,8.2
2022-09-06T23:57:37.384Z,7.4
